Time;durP1;ratioP1;P1;durP2;ratioP2;P2;SDS_P1;SDS_P2;PMS_P1;PMS_P2;Temp;Humidity;BMP_temperature;BMP_pressure;BME280_temperature;BME280_humidity;BME280_pressure;Samples;Min_cycle;Max_cycle;Signal;HPM_P1;HPM_P2
2022/12/27 00:01:33;;;;;;;2.63;1.48;;;6.70;99.90;;;;;;5953137;24;20199;-75
2022/12/27 00:04:01;;;;;;;1.25;1.13;;;6.70;99.90;;;;;;5967198;24;20637;-75
2022/12/27 00:06:30;;;;;;;2.10;1.20;;;6.70;99.90;;;;;;5974055;24;20233;-75
2022/12/27 00:08:58;;;;;;;2.10;1.30;;;6.60;99.90;;;;;;5959851;24;20274;-75
2022/12/27 00:11:29;;;;;;;2.10;1.05;;;6.60;99.90;;;;;;5978045;24;20195;-76
2022/12/27 00:13:56;;;;;;;2.60;1.40;;;6.60;99.90;;;;;;5978862;24;20258;-76
2022/12/27 00:16:24;;;;;;;1.40;1.20;;;6.50;99.90;;;;;;5953301;24;20281;-75
2022/12/27 00:18:53;;;;;;;1.35;1.05;;;6.50;99.90;;;;;;5954122;24;20336;-75
2022/12/27 00:21:21;;;;;;;2.47;2.28;;;6.50;99.90;;;;;;5974671;23;20195;-75
2022/12/27 00:23:52;;;;;;;2.33;1.17;;;6.40;99.90;;;;;;5978590;24;20202;-75
2022/12/27 00:26:23;;;;;;;3.42;1.52;;;6.40;99.90;;;;;;5977803;24;20589;-74
2022/12/27 00:28:51;;;;;;;2.33;1.48;;;6.30;99.90;;;;;;5971553;24;20217;-75
2022/12/27 00:31:20;;;;;;;1.75;1.23;;;6.30;99.90;;;;;;5951556;24;20866;-74
2022/12/27 00:33:51;;;;;;;1.85;1.63;;;6.30;99.90;;;;;;5981419;23;20295;-75
2022/12/27 00:36:20;;;;;;;2.45;1.48;;;6.20;99.90;;;;;;5954634;24;20252;-75
2022/12/27 00:38:50;;;;;;;2.97;1.77;;;6.20;99.90;;;;;;5966093;24;20196;-75
2022/12/27 00:41:18;;;;;;;2.42;1.80;;;6.10;99.90;;;;;;6001210;23;20198;-75
2022/12/27 00:43:46;;;;;;;1.95;1.20;;;6.00;99.90;;;;;;5977685;23;20202;-75
2022/12/27 00:46:13;;;;;;;2.13;1.13;;;6.00;99.90;;;;;;5977609;24;20195;-74
2022/12/27 00:48:41;;;;;;;2.42;1.10;;;5.90;99.90;;;;;;5957729;23;20198;-74
2022/12/27 00:51:12;;;;;;;2.95;1.10;;;5.90;99.90;;;;;;5946989;24;20317;-75
2022/12/27 00:53:40;;;;;;;3.00;1.13;;;5.90;99.90;;;;;;5947238;24;20253;-75
2022/12/27 00:56:09;;;;;;;1.80;1.02;;;5.80;99.90;;;;;;5966733;24;20215;-76
2022/12/27 00:58:37;;;;;;;1.88;1.15;;;5.80;99.90;;;;;;5978036;24;20203;-77
2022/12/27 01:01:09;;;;;;;2.83;1.55;;;5.70;99.90;;;;;;5995622;23;20218;-75
2022/12/27 01:03:37;;;;;;;1.40;1.30;;;5.70;99.90;;;;;;5989241;23;20233;-75
2022/12/27 01:06:05;;;;;;;2.15;1.10;;;5.60;99.90;;;;;;5979744;24;20290;-75
2022/12/27 01:08:32;;;;;;;2.55;1.25;;;5.50;99.90;;;;;;5974881;24;20228;-75
2022/12/27 01:10:59;;;;;;;1.30;1.20;;;5.50;99.90;;;;;;5982471;23;20513;-75
2022/12/27 01:13:28;;;;;;;1.40;1.20;;;5.50;99.90;;;;;;5973391;23;20199;-75
2022/12/27 01:15:55;;;;;;;2.45;1.42;;;5.40;99.90;;;;;;5955946;24;20227;-76
2022/12/27 01:18:22;;;;;;;1.90;1.20;;;5.30;99.90;;;;;;5973915;24;20278;-75
2022/12/27 01:20:50;;;;;;;3.38;1.10;;;5.30;99.90;;;;;;5978018;24;20214;-75
2022/12/27 01:23:17;;;;;;;1.40;1.30;;;5.30;99.90;;;;;;5958207;23;20191;-75
2022/12/27 01:25:44;;;;;;;1.00;0.90;;;5.20;99.90;;;;;;5988355;23;20226;-75
2022/12/27 01:28:11;;;;;;;2.25;1.20;;;5.20;99.90;;;;;;5957486;24;20206;-75
2022/12/27 01:30:40;;;;;;;2.67;1.13;;;5.20;99.90;;;;;;5966817;24;20218;-75
2022/12/27 01:33:07;;;;;;;3.05;0.90;;;5.10;99.90;;;;;;5966820;24;20254;-75
2022/12/27 01:35:34;;;;;;;3.22;1.10;;;5.10;99.90;;;;;;5977787;23;20195;-75
2022/12/27 01:38:01;;;;;;;2.45;1.25;;;5.10;99.90;;;;;;5978919;24;20206;-75
2022/12/27 01:40:28;;;;;;;1.65;1.10;;;5.00;99.90;;;;;;5981014;23;20279;-76
2022/12/27 01:42:55;;;;;;;2.45;1.20;;;5.00;99.90;;;;;;5985968;23;20246;-75
2022/12/27 01:45:24;;;;;;;1.42;1.13;;;5.00;99.90;;;;;;5982819;24;20187;-75
2022/12/27 01:47:56;;;;;;;1.00;0.90;;;4.90;99.90;;;;;;5973414;23;20226;-76
2022/12/27 01:50:29;;;;;;;2.65;1.58;;;4.90;99.90;;;;;;5972173;24;20218;-75
2022/12/27 01:53:02;;;;;;;2.55;1.30;;;4.90;99.90;;;;;;5990577;24;20211;-75
2022/12/27 01:55:36;;;;;;;1.73;1.10;;;4.90;99.90;;;;;;5991424;24;20202;-76
2022/12/27 01:58:07;;;;;;;1.33;1.00;;;4.90;99.90;;;;;;5975111;24;20198;-75
2022/12/27 02:00:34;;;;;;;1.25;1.17;;;4.90;99.90;;;;;;5983777;24;20640;-75
2022/12/27 02:03:05;;;;;;;2.05;1.23;;;4.80;99.90;;;;;;5959102;24;20254;-75
2022/12/27 02:05:33;;;;;;;3.30;1.10;;;4.80;99.90;;;;;;5979448;24;20644;-75
2022/12/27 02:08:11;;;;;;;1.80;1.20;;;4.80;99.90;;;;;;5980154;23;20201;-75
2022/12/27 02:10:39;;;;;;;2.55;1.10;;;4.80;99.90;;;;;;5993397;23;20194;-75
2022/12/27 02:13:06;;;;;;;5.15;1.30;;;4.70;99.90;;;;;;6004832;23;20225;-75
2022/12/27 02:15:34;;;;;;;3.85;1.50;;;4.70;99.90;;;;;;5981900;23;20665;-75
2022/12/27 02:18:03;;;;;;;3.67;1.40;;;4.70;99.90;;;;;;5966969;23;20269;-75
2022/12/27 02:20:38;;;;;;;3.65;1.35;;;4.70;99.90;;;;;;5962301;24;20297;-75
2022/12/27 02:26:40;;;;;;;2.13;1.27;;;4.70;99.90;;;;;;5980003;23;20226;-75
2022/12/27 02:29:19;;;;;;;2.60;1.35;;;4.70;99.90;;;;;;5992578;23;20198;-75
2022/12/27 02:31:52;;;;;;;2.13;1.10;;;4.70;99.90;;;;;;5978433;24;20684;-75
2022/12/27 02:34:24;;;;;;;3.70;1.38;;;4.70;99.90;;;;;;5975021;24;20276;-75
2022/12/27 02:36:56;;;;;;;2.97;1.20;;;4.60;99.90;;;;;;5954005;24;20226;-75
2022/12/27 02:39:26;;;;;;;3.25;1.35;;;4.60;99.90;;;;;;5933140;24;20250;-75
2022/12/27 02:53:25;;;;;;;4.75;1.45;;;4.50;99.90;;;;;;5935098;24;20277;-75
2022/12/27 02:59:00;;;;;;;2.50;1.80;;;4.40;99.90;;;;;;5918948;24;20562;-75
2022/12/27 03:04:48;;;;;;;3.15;1.67;;;4.40;99.90;;;;;;5890423;24;20355;-75
2022/12/27 03:07:26;;;;;;;1.90;1.45;;;4.30;99.90;;;;;;5973501;24;20265;-74
2022/12/27 03:16:00;;;;;;;1.60;1.50;;;4.20;99.90;;;;;;5945125;24;20669;-75
2022/12/27 03:18:40;;;;;;;3.33;1.30;;;4.20;99.90;;;;;;5951612;24;20354;-75
2022/12/27 03:26:46;;;;;;;2.13;1.52;;;4.10;99.90;;;;;;5969610;24;20202;-75
2022/12/27 03:34:55;;;;;;;3.17;1.42;;;3.80;99.90;;;;;;5963618;24;20231;-76
2022/12/27 03:40:18;;;;;;;2.78;1.48;;;3.80;99.90;;;;;;5952141;24;20611;-75
2022/12/27 03:48:39;;;;;;;3.88;1.60;;;3.80;99.90;;;;;;5952082;24;20203;-75
2022/12/27 03:51:08;;;;;;;1.88;1.10;;;3.70;99.90;;;;;;5954467;24;20459;-75
2022/12/27 03:53:39;;;;;;;3.03;1.38;;;3.80;99.90;;;;;;5965114;24;20210;-75
2022/12/27 03:56:08;;;;;;;2.00;1.20;;;3.80;99.90;;;;;;5958648;24;20195;-75
2022/12/27 03:58:35;;;;;;;1.92;1.50;;;3.80;99.90;;;;;;5966471;24;20213;-76
2022/12/27 04:01:02;;;;;;;1.88;1.27;;;3.80;99.90;;;;;;5964218;24;20257;-75
2022/12/27 04:03:29;;;;;;;1.63;1.40;;;3.80;99.90;;;;;;5952581;24;20230;-76
2022/12/27 04:05:57;;;;;;;2.28;1.50;;;3.80;99.90;;;;;;5966793;24;20666;-75
2022/12/27 04:35:54;;;;;;;2.80;1.83;;;3.60;99.90;;;;;;5972424;24;20192;-75
2022/12/27 04:38:21;;;;;;;2.60;1.77;;;3.50;99.90;;;;;;5977089;24;20332;-75
2022/12/27 04:54:56;;;;;;;1.30;1.20;;;3.40;99.90;;;;;;5952625;24;20703;-75
2022/12/27 04:57:25;;;;;;;4.30;1.63;;;3.40;99.90;;;;;;5955861;24;20594;-75
2022/12/27 05:02:37;;;;;;;1.60;1.50;;;3.30;99.90;;;;;;5969723;24;20199;-75
2022/12/27 05:05:05;;;;;;;3.00;1.38;;;3.40;99.90;;;;;;5978197;24;20197;-75
2022/12/27 05:15:49;;;;;;;4.57;1.60;;;3.50;99.90;;;;;;5960680;24;20198;-76
2022/12/27 05:18:16;;;;;;;1.88;1.30;;;3.60;99.90;;;;;;5997029;24;20199;-74
2022/12/27 05:20:43;;;;;;;3.08;1.40;;;3.60;99.90;;;;;;6001880;24;20214;-75
2022/12/27 05:25:50;;;;;;;4.03;2.17;;;3.60;99.90;;;;;;6053568;23;20196;-76
2022/12/27 05:28:19;;;;;;;1.88;1.30;;;3.70;99.90;;;;;;6060503;23;20213;-76
2022/12/27 05:30:46;;;;;;;2.92;1.25;;;3.70;99.90;;;;;;6058207;23;20204;-75
2022/12/27 05:33:13;;;;;;;1.88;1.35;;;3.80;99.90;;;;;;6035382;23;20681;-75
2022/12/27 05:35:41;;;;;;;3.55;1.40;;;3.90;99.90;;;;;;6010327;23;20197;-75
2022/12/27 05:38:08;;;;;;;2.08;1.45;;;3.90;99.90;;;;;;6032621;23;20227;-75
2022/12/27 05:40:35;;;;;;;1.70;1.30;;;3.90;99.90;;;;;;6010174;23;20270;-74
2022/12/27 05:43:04;;;;;;;2.40;1.30;;;4.00;99.90;;;;;;6034365;23;20204;-75
2022/12/27 05:45:33;;;;;;;1.85;1.20;;;4.00;99.90;;;;;;6036258;23;20294;-75
2022/12/27 05:48:00;;;;;;;1.65;1.30;;;4.00;99.90;;;;;;6050004;23;20243;-75
2022/12/27 05:50:27;;;;;;;1.98;1.33;;;4.00;99.90;;;;;;6035068;23;20193;-75
2022/12/27 05:52:55;;;;;;;1.98;1.40;;;3.90;99.90;;;;;;6008948;23;20528;-75
2022/12/27 05:55:22;;;;;;;2.17;1.20;;;3.90;99.90;;;;;;5982545;23;20197;-75
2022/12/27 05:57:50;;;;;;;1.83;1.20;;;3.90;99.90;;;;;;6051514;23;20233;-75
2022/12/27 06:00:18;;;;;;;1.20;1.10;;;3.90;99.90;;;;;;6063735;23;20212;-75
2022/12/27 06:02:46;;;;;;;2.50;1.55;;;3.80;99.90;;;;;;6017244;23;20207;-75
2022/12/27 06:05:13;;;;;;;3.13;1.50;;;3.70;99.90;;;;;;6036508;23;20207;-75
2022/12/27 06:07:40;;;;;;;2.22;1.80;;;3.60;99.90;;;;;;6055414;23;20200;-75
2022/12/27 06:10:09;;;;;;;1.73;1.50;;;3.50;99.90;;;;;;6032028;23;20276;-75
2022/12/27 06:12:37;;;;;;;3.60;1.52;;;3.40;99.90;;;;;;6055427;23;20202;-75
2022/12/27 06:15:05;;;;;;;2.90;1.58;;;3.40;99.90;;;;;;6037849;23;20925;-75
2022/12/27 06:17:32;;;;;;;2.78;1.70;;;3.40;99.90;;;;;;6058922;23;20195;-75
2022/12/27 06:20:00;;;;;;;1.73;1.63;;;3.30;99.90;;;;;;6057543;23;20215;-75
2022/12/27 06:22:27;;;;;;;6.38;2.00;;;3.20;99.90;;;;;;6033274;23;20635;-75
2022/12/27 06:24:54;;;;;;;2.00;1.80;;;3.20;99.90;;;;;;6034061;23;20220;-75
2022/12/27 06:27:22;;;;;;;2.22;1.70;;;3.10;99.90;;;;;;6007785;23;20553;-75
2022/12/27 06:29:49;;;;;;;3.10;1.60;;;3.10;99.90;;;;;;6035340;23;20532;-75
2022/12/27 06:32:16;;;;;;;2.25;1.60;;;3.00;99.90;;;;;;6032060;23;20195;-74
2022/12/27 06:34:44;;;;;;;1.60;1.50;;;2.90;99.90;;;;;;6034024;23;20577;-74
2022/12/27 06:37:12;;;;;;;3.20;1.65;;;2.90;99.90;;;;;;6036036;23;20284;-75
2022/12/27 06:39:39;;;;;;;3.10;1.98;;;2.90;99.90;;;;;;6039846;23;20302;-75
2022/12/27 06:42:06;;;;;;;2.17;1.75;;;2.80;99.90;;;;;;6022724;23;20248;-75
2022/12/27 06:44:34;;;;;;;2.30;2.10;;;2.70;99.90;;;;;;6006399;23;20204;-75
2022/12/27 06:47:01;;;;;;;2.92;1.98;;;2.60;99.90;;;;;;6032452;23;20604;-75
2022/12/27 06:49:28;;;;;;;3.40;2.30;;;2.60;99.90;;;;;;6061292;23;20193;-74
2022/12/27 06:51:56;;;;;;;1.67;1.58;;;2.60;99.90;;;;;;6051932;23;20246;-74
2022/12/27 06:54:24;;;;;;;3.33;1.65;;;2.50;99.90;;;;;;6008172;23;20228;-75
2022/12/27 06:56:55;;;;;;;2.08;1.65;;;2.50;99.90;;;;;;6037442;23;20198;-75
2022/12/27 06:59:22;;;;;;;2.33;2.05;;;2.50;99.90;;;;;;6059759;23;20203;-75
2022/12/27 07:01:49;;;;;;;3.05;1.90;;;2.50;99.90;;;;;;6052314;23;20301;-75
2022/12/27 07:04:17;;;;;;;2.42;2.20;;;2.50;99.90;;;;;;6009353;23;20497;-74
2022/12/27 07:06:44;;;;;;;2.35;1.85;;;2.40;99.90;;;;;;6042926;23;20226;-75
2022/12/27 07:09:11;;;;;;;1.83;1.65;;;2.50;99.90;;;;;;6063553;23;20252;-75
2022/12/27 07:11:39;;;;;;;2.00;1.80;;;2.50;99.90;;;;;;6034348;23;20279;-75
2022/12/27 07:14:09;;;;;;;2.75;1.80;;;2.50;99.90;;;;;;6034063;23;20277;-75
2022/12/27 07:16:36;;;;;;;3.28;1.80;;;2.50;99.90;;;;;;6007405;23;20255;-75
2022/12/27 07:19:03;;;;;;;2.20;1.77;;;2.50;99.90;;;;;;6032117;23;20229;-74
2022/12/27 07:21:31;;;;;;;4.07;1.88;;;2.50;99.90;;;;;;6034820;23;20718;-75
2022/12/27 07:23:58;;;;;;;3.58;2.20;;;2.40;99.90;;;;;;6037320;23;20195;-75
2022/12/27 07:26:28;;;;;;;3.08;1.85;;;2.40;99.90;;;;;;6038127;23;20257;-75
2022/12/27 07:28:58;;;;;;;3.42;1.92;;;2.40;99.90;;;;;;6035440;23;20186;-75
2022/12/27 07:31:28;;;;;;;2.45;1.90;;;2.40;99.90;;;;;;6042498;23;20274;-75
2022/12/27 07:33:56;;;;;;;2.03;1.83;;;2.50;99.90;;;;;;6053892;23;20184;-75
2022/12/27 07:36:25;;;;;;;2.40;1.77;;;2.50;99.90;;;;;;6045543;23;20277;-75
2022/12/27 07:38:52;;;;;;;3.35;2.10;;;2.60;99.90;;;;;;6036490;23;20193;-74
2022/12/27 07:41:20;;;;;;;4.80;1.85;;;2.60;99.90;;;;;;6032116;23;20235;-77
2022/12/27 07:43:47;;;;;;;3.45;2.28;;;2.80;99.90;;;;;;6048543;23;20270;-77
2022/12/27 07:46:20;;;;;;;2.40;1.92;;;3.00;99.90;;;;;;6046614;23;20190;-78
2022/12/27 07:48:47;;;;;;;3.58;2.00;;;3.20;99.90;;;;;;6056504;23;20177;-78
2022/12/27 07:51:17;;;;;;;2.67;2.00;;;3.40;99.90;;;;;;6048397;23;20221;-78
2022/12/27 07:53:45;;;;;;;3.45;1.90;;;3.60;99.90;;;;;;6047280;23;20243;-77
2022/12/27 07:56:19;;;;;;;2.65;2.00;;;3.70;99.90;;;;;;6039390;23;20228;-77
2022/12/27 07:58:48;;;;;;;2.30;2.10;;;3.70;99.90;;;;;;6074682;23;20244;-78
2022/12/27 08:01:21;;;;;;;2.13;1.77;;;3.90;99.90;;;;;;6078870;23;20200;-77
2022/12/27 08:03:49;;;;;;;2.88;2.47;;;4.00;99.90;;;;;;6065033;23;20221;-78
2022/12/27 08:06:22;;;;;;;2.17;1.95;;;4.10;99.90;;;;;;6046524;23;20219;-77
2022/12/27 08:08:51;;;;;;;4.65;2.40;;;4.20;99.90;;;;;;6042994;23;20208;-77
2022/12/27 08:11:19;;;;;;;2.85;2.10;;;4.10;99.90;;;;;;6047686;23;20212;-78
2022/12/27 08:13:46;;;;;;;3.75;2.08;;;4.00;99.90;;;;;;6010498;23;20324;-77
2022/12/27 08:16:17;;;;;;;3.85;2.05;;;4.00;99.90;;;;;;6038853;23;20260;-75
2022/12/27 08:18:46;;;;;;;3.35;2.38;;;3.90;99.90;;;;;;6051120;23;20196;-75
2022/12/27 08:21:14;;;;;;;3.30;2.20;;;3.80;99.90;;;;;;6044423;23;20190;-75
2022/12/27 08:23:41;;;;;;;2.45;2.25;;;3.80;99.90;;;;;;6044571;23;20250;-76
2022/12/27 08:26:09;;;;;;;2.63;2.40;;;3.70;99.90;;;;;;6020210;23;20203;-76
2022/12/27 08:28:37;;;;;;;2.67;2.05;;;3.70;99.90;;;;;;6042465;23;20220;-75
2022/12/27 08:31:07;;;;;;;3.70;2.03;;;3.70;99.90;;;;;;6038420;23;20213;-75
2022/12/27 08:33:35;;;;;;;4.40;2.17;;;3.70;99.90;;;;;;6009477;23;20259;-76
2022/12/27 08:36:19;;;;;;;2.97;2.10;;;3.70;99.90;;;;;;6035922;23;20615;-75
2022/12/27 08:38:47;;;;;;;2.22;1.80;;;3.80;99.90;;;;;;6026586;23;20576;-74
2022/12/27 08:41:19;;;;;;;7.15;3.22;;;3.80;99.90;;;;;;6040190;23;20275;-76
2022/12/27 08:43:46;;;;;;;3.25;2.30;;;3.90;99.90;;;;;;6059822;23;20196;-76
2022/12/27 08:46:13;;;;;;;3.35;2.55;;;4.00;99.90;;;;;;6064929;23;20609;-75
2022/12/27 08:48:41;;;;;;;3.22;2.25;;;4.10;99.90;;;;;;6055909;23;20239;-76
2022/12/27 08:51:08;;;;;;;3.25;2.35;;;4.30;99.90;;;;;;6053320;23;20651;-76
2022/12/27 08:53:36;;;;;;;3.58;2.30;;;4.40;99.90;;;;;;6036365;23;20197;-76
2022/12/27 08:56:04;;;;;;;3.03;2.20;;;4.60;99.90;;;;;;6037622;23;20272;-75
2022/12/27 08:58:31;;;;;;;2.65;2.20;;;4.70;99.90;;;;;;6012532;23;20659;-77
2022/12/27 09:01:04;;;;;;;4.63;2.03;;;4.90;99.90;;;;;;6036739;23;20644;-77
2022/12/27 09:03:33;;;;;;;2.22;1.65;;;5.20;99.90;;;;;;6038729;23;20251;-81
2022/12/27 09:06:08;;;;;;;3.35;1.83;;;5.50;99.90;;;;;;5982033;23;20226;-76
2022/12/27 09:08:38;;;;;;;2.53;1.70;;;5.90;99.90;;;;;;6036730;23;20193;-77
2022/12/27 09:11:10;;;;;;;2.42;1.45;;;6.40;99.90;;;;;;6040551;23;20207;-76
2022/12/27 09:13:38;;;;;;;1.55;1.45;;;7.00;99.90;;;;;;6036628;23;20211;-77
2022/12/27 09:16:07;;;;;;;3.85;1.40;;;7.50;99.90;;;;;;6013003;23;20239;-76
2022/12/27 09:18:35;;;;;;;1.63;1.20;;;7.90;99.90;;;;;;6021721;23;20212;-81
2022/12/27 09:21:07;;;;;;;3.58;1.20;;;8.20;99.90;;;;;;6032767;23;20206;-77
2022/12/27 09:23:35;;;;;;;1.38;1.15;;;8.30;99.90;;;;;;6037925;23;20205;-76
2022/12/27 09:26:09;;;;;;;1.42;1.17;;;8.50;99.90;;;;;;6028841;23;20216;-77
2022/12/27 09:28:37;;;;;;;2.40;0.90;;;8.50;99.90;;;;;;6040742;23;20206;-76
2022/12/27 09:31:04;;;;;;;2.65;1.20;;;8.50;99.90;;;;;;5995956;23;20215;-77
2022/12/27 09:33:32;;;;;;;2.72;1.20;;;8.50;99.90;;;;;;6045933;23;20201;-77
2022/12/27 09:36:02;;;;;;;3.35;1.30;;;8.50;99.90;;;;;;6036501;23;20196;-76
2022/12/27 09:38:29;;;;;;;3.40;1.20;;;8.40;99.90;;;;;;6039738;23;20255;-76
2022/12/27 09:40:59;;;;;;;1.55;1.10;;;8.60;99.90;;;;;;6039835;23;20205;-76
2022/12/27 09:43:38;;;;;;;2.22;1.27;;;8.70;99.90;;;;;;6045343;23;20279;-76
2022/12/27 09:46:13;;;;;;;1.90;1.10;;;8.80;99.90;;;;;;6058680;23;20602;-76
2022/12/27 09:48:40;;;;;;;1.48;1.00;;;9.00;99.90;;;;;;6040297;23;20533;-76
2022/12/27 09:51:13;;;;;;;1.90;1.10;;;9.10;99.90;;;;;;6021983;23;20220;-76
2022/12/27 09:53:46;;;;;;;2.75;1.50;;;9.10;99.90;;;;;;6049356;23;20205;-77
2022/12/27 09:56:19;;;;;;;2.33;1.20;;;9.20;99.90;;;;;;6046883;23;20221;-77
2022/12/27 09:58:52;;;;;;;1.63;1.23;;;9.30;99.90;;;;;;6016169;23;20196;-76
2022/12/27 10:01:22;;;;;;;1.40;1.10;;;9.30;99.90;;;;;;6039807;23;20196;-77
2022/12/27 10:03:49;;;;;;;3.20;1.35;;;9.30;99.90;;;;;;6041593;23;20204;-76
2022/12/27 10:06:33;;;;;;;2.10;1.35;;;9.40;99.90;;;;;;6040677;23;20259;-76
2022/12/27 10:09:05;;;;;;;3.28;1.60;;;9.50;99.90;;;;;;6010132;23;20204;-76
2022/12/27 10:11:41;;;;;;;1.80;1.27;;;9.50;99.90;;;;;;6021560;23;20206;-76
2022/12/27 10:14:31;;;;;;;3.65;1.27;;;9.50;99.90;;;;;;6037816;23;20272;-76
2022/12/27 10:17:07;;;;;;;2.10;1.40;;;9.50;99.90;;;;;;6013773;23;20650;-76
2022/12/27 10:19:43;;;;;;;1.40;1.30;;;9.50;99.90;;;;;;6017322;23;20177;-76
2022/12/27 10:22:25;;;;;;;3.42;1.13;;;9.50;99.90;;;;;;6039951;23;20243;-76
2022/12/27 10:24:56;;;;;;;2.25;1.30;;;9.50;99.90;;;;;;6039283;23;20228;-76
2022/12/27 10:27:26;;;;;;;1.83;1.30;;;9.50;99.90;;;;;;6037012;23;20196;-76
2022/12/27 10:29:56;;;;;;;1.95;1.25;;;9.50;99.90;;;;;;6025209;23;20212;-76
2022/12/27 10:32:23;;;;;;;1.60;1.00;;;9.60;99.90;;;;;;6037100;23;20213;-76
2022/12/27 10:34:55;;;;;;;1.90;1.13;;;9.70;99.90;;;;;;6038390;23;20213;-76
2022/12/27 10:37:22;;;;;;;1.15;1.00;;;9.70;99.90;;;;;;6014049;23;20193;-77
2022/12/27 10:39:49;;;;;;;2.03;1.55;;;9.90;99.90;;;;;;6034460;23;20277;-76
2022/12/27 10:42:32;;;;;;;2.40;1.25;;;9.90;99.90;;;;;;6005149;23;20201;-76
2022/12/27 10:45:29;;;;;;;3.35;1.30;;;9.90;99.90;;;;;;6005496;23;20505;-76
2022/12/27 10:47:58;;;;;;;1.98;1.20;;;9.80;99.90;;;;;;6030775;23;20201;-76
2022/12/27 10:50:29;;;;;;;2.35;1.00;;;9.80;99.90;;;;;;6031297;23;20220;-81
2022/12/27 10:52:56;;;;;;;3.97;1.20;;;9.60;99.90;;;;;;6034147;23;20627;-76
2022/12/27 10:55:37;;;;;;;2.53;1.13;;;9.60;99.90;;;;;;6043789;23;20319;-76
2022/12/27 10:58:21;;;;;;;3.72;1.50;;;9.50;99.90;;;;;;6034635;23;20197;-76
2022/12/27 11:01:04;;;;;;;2.95;1.30;;;9.40;99.90;;;;;;6041076;23;20271;-76
2022/12/27 11:03:32;;;;;;;4.82;1.67;;;9.50;99.90;;;;;;6028898;23;20288;-76
2022/12/27 11:06:01;;;;;;;4.85;1.95;;;9.50;99.90;;;;;;6031093;23;20228;-77
2022/12/27 11:08:29;;;;;;;3.25;1.90;;;9.60;99.90;;;;;;6004178;23;20197;-76
2022/12/27 11:11:22;;;;;;;3.67;2.03;;;9.80;99.90;;;;;;6033018;23;20276;-76
2022/12/27 11:13:50;;;;;;;2.75;1.92;;;10.00;99.90;;;;;;6005974;23;20217;-76
2022/12/27 11:16:27;;;;;;;2.58;1.92;;;10.00;99.90;;;;;;6032815;23;20243;-76
2022/12/27 11:18:57;;;;;;;3.20;2.20;;;9.80;99.90;;;;;;6042326;23;20231;-79
2022/12/27 11:21:25;;;;;;;2.25;2.05;;;9.60;99.90;;;;;;6057147;23;20255;-80
2022/12/27 11:23:55;;;;;;;2.78;2.00;;;9.60;99.90;;;;;;6029583;23;20207;-76
2022/12/27 11:26:24;;;;;;;3.60;2.20;;;9.50;99.90;;;;;;6049708;23;20209;-76
2022/12/27 11:28:54;;;;;;;3.30;2.25;;;9.60;99.90;;;;;;6030506;23;20247;-77
2022/12/27 11:31:36;;;;;;;5.82;2.08;;;9.90;99.90;;;;;;6033154;23;20274;-76
2022/12/27 11:34:08;;;;;;;3.05;2.33;;;10.10;99.90;;;;;;6032626;23;20193;-76
2022/12/27 11:36:39;;;;;;;2.33;1.90;;;9.90;99.90;;;;;;6033354;23;20626;-76
2022/12/27 11:39:07;;;;;;;3.67;1.80;;;9.80;99.90;;;;;;6033700;23;20299;-82
2022/12/27 11:41:41;;;;;;;2.90;1.63;;;9.90;99.90;;;;;;6041781;23;20197;-76
2022/12/27 11:44:16;;;;;;;2.10;1.80;;;9.90;99.90;;;;;;6038804;23;20193;-77
2022/12/27 11:46:50;;;;;;;1.85;1.60;;;10.00;99.90;;;;;;6013415;23;20193;-76
2022/12/27 11:49:23;;;;;;;1.58;1.40;;;10.30;99.90;;;;;;6030114;23;20793;-76
2022/12/27 11:52:35;;;;;;;1.70;1.50;;;10.30;99.90;;;;;;6032510;23;20200;-76
2022/12/27 11:55:27;;;;;;;2.15;1.90;;;10.40;99.90;;;;;;6033363;23;20632;-76
2022/12/27 11:58:30;;;;;;;6.15;2.10;;;10.20;99.90;;;;;;6003757;23;20272;-76
2022/12/27 12:01:01;;;;;;;2.88;1.73;;;10.00;99.90;;;;;;6012159;23;20272;-76
2022/12/27 12:03:59;;;;;;;3.75;1.85;;;10.10;99.90;;;;;;6032827;23;20194;-76
2022/12/27 12:06:38;;;;;;;3.40;1.92;;;10.20;99.90;;;;;;6031703;23;20201;-76
2022/12/27 12:09:43;;;;;;;5.50;2.03;;;9.70;99.90;;;;;;6030430;23;20229;-76
2022/12/27 12:12:41;;;;;;;2.08;1.88;;;9.20;99.90;;;;;;6016540;23;20315;-76
2022/12/27 12:15:50;;;;;;;3.92;1.80;;;8.90;99.90;;;;;;6029529;23;20281;-76
2022/12/27 12:18:28;;;;;;;3.65;2.10;;;9.00;99.90;;;;;;5985443;23;20224;-76
2022/12/27 12:21:25;;;;;;;1.73;1.48;;;8.90;99.90;;;;;;6030518;23;20228;-76
2022/12/27 12:24:20;;;;;;;3.03;2.10;;;8.80;99.90;;;;;;6023480;23;20276;-76
2022/12/27 12:26:58;;;;;;;4.90;2.17;;;8.80;99.90;;;;;;5994716;23;20233;-76
2022/12/27 12:29:36;;;;;;;5.82;1.90;;;8.80;99.90;;;;;;6007431;23;20193;-76
2022/12/27 12:32:29;;;;;;;3.38;1.80;;;8.70;99.90;;;;;;6003139;23;20252;-76
2022/12/27 12:35:24;;;;;;;2.58;1.98;;;8.60;99.90;;;;;;6022985;23;20259;-75
2022/12/27 12:38:03;;;;;;;3.83;1.77;;;8.50;99.90;;;;;;6027400;23;20562;-76
2022/12/27 12:40:43;;;;;;;3.92;1.40;;;8.60;99.90;;;;;;6016620;23;20267;-76
2022/12/27 12:43:22;;;;;;;2.72;1.30;;;8.70;99.90;;;;;;6021355;23;20350;-76
2022/12/27 12:46:08;;;;;;;1.75;1.40;;;8.90;99.90;;;;;;6023828;23;20284;-76
2022/12/27 12:49:07;;;;;;;2.10;1.52;;;9.00;99.90;;;;;;6017213;23;20264;-76
2022/12/27 12:51:56;;;;;;;2.20;1.50;;;9.10;99.90;;;;;;6022624;23;20264;-75
2022/12/27 12:54:40;;;;;;;1.90;1.30;;;9.30;99.90;;;;;;6021840;23;20205;-76
2022/12/27 12:57:20;;;;;;;1.90;1.50;;;9.40;99.90;;;;;;6028264;23;20677;-76
2022/12/27 13:00:08;;;;;;;1.92;1.42;;;9.60;99.90;;;;;;6029904;23;20281;-76
2022/12/27 13:03:13;;;;;;;4.20;1.60;;;9.70;99.90;;;;;;6031519;23;20186;-76
2022/12/27 13:05:46;;;;;;;3.17;1.50;;;9.80;99.90;;;;;;5998865;23;20603;-76
2022/12/27 13:08:22;;;;;;;2.00;1.50;;;9.60;99.90;;;;;;6024691;23;20190;-76
2022/12/27 13:11:12;;;;;;;2.28;1.48;;;9.50;99.90;;;;;;6031990;23;20227;-75
2022/12/27 13:13:50;;;;;;;3.25;1.60;;;9.50;99.90;;;;;;6016947;23;20241;-76
2022/12/27 13:16:28;;;;;;;2.63;1.38;;;9.50;99.90;;;;;;6015023;23;20227;-76
2022/12/27 13:19:11;;;;;;;2.42;1.70;;;9.60;99.90;;;;;;6007041;23;20235;-76
2022/12/27 13:21:57;;;;;;;2.45;1.40;;;9.60;99.90;;;;;;6021537;23;20185;-75
2022/12/27 13:24:35;;;;;;;8.60;1.90;;;9.60;99.90;;;;;;6035038;23;20252;-75
2022/12/27 13:27:13;;;;;;;2.95;1.52;;;9.60;99.90;;;;;;6025402;23;20203;-75
2022/12/27 13:30:02;;;;;;;3.85;1.33;;;9.50;99.90;;;;;;6020687;23;20193;-77
2022/12/27 13:32:42;;;;;;;2.65;1.75;;;9.50;99.90;;;;;;6034922;23;20205;-74
2022/12/27 13:35:28;;;;;;;2.17;1.42;;;9.50;99.90;;;;;;6047206;23;20601;-75
2022/12/27 13:38:06;;;;;;;5.13;1.60;;;9.70;99.90;;;;;;5984996;23;20197;-75
2022/12/27 13:40:49;;;;;;;3.35;1.45;;;9.80;99.90;;;;;;6019396;23;20197;-78
2022/12/27 13:43:36;;;;;;;2.10;1.50;;;9.90;99.90;;;;;;6036897;23;20201;-76
2022/12/27 13:46:33;;;;;;;3.13;1.60;;;10.00;99.90;;;;;;6035321;23;20201;-75
2022/12/27 13:49:36;;;;;;;3.03;1.42;;;10.00;99.90;;;;;;6030092;23;20263;-75
2022/12/27 13:52:16;;;;;;;2.38;1.50;;;10.00;99.90;;;;;;6011444;23;20197;-75
2022/12/27 13:55:02;;;;;;;1.45;1.20;;;10.00;99.90;;;;;;6035508;23;20197;-75
2022/12/27 13:57:51;;;;;;;3.92;1.92;;;9.90;99.90;;;;;;6011964;23;20224;-75
2022/12/27 14:00:22;;;;;;;1.98;1.88;;;9.70;99.90;;;;;;6031990;23;20219;-76
2022/12/27 14:03:22;;;;;;;3.20;1.95;;;9.50;99.90;;;;;;6038137;23;20197;-76
2022/12/27 14:06:33;;;;;;;3.05;1.85;;;9.30;99.90;;;;;;6032013;23;20208;-74
2022/12/27 14:09:26;;;;;;;4.03;1.48;;;9.20;99.90;;;;;;5993330;23;20269;-75
2022/12/27 14:12:07;;;;;;;2.05;1.70;;;9.10;99.90;;;;;;6002609;23;20228;-75
2022/12/27 14:14:37;;;;;;;1.70;1.30;;;9.00;99.90;;;;;;6025563;23;20292;-76
2022/12/27 14:17:27;;;;;;;2.85;1.60;;;9.00;99.90;;;;;;6016116;23;20618;-75
2022/12/27 14:20:18;;;;;;;2.83;1.50;;;9.00;99.90;;;;;;6003748;23;20190;-75
2022/12/27 14:23:22;;;;;;;2.50;1.50;;;9.00;99.90;;;;;;6054747;23;20638;-75
2022/12/27 14:26:15;;;;;;;1.58;1.48;;;8.90;99.90;;;;;;6034563;23;20230;-75
2022/12/27 14:29:24;;;;;;;3.80;1.50;;;8.80;99.90;;;;;;6029164;23;20723;-76
2022/12/27 14:32:15;;;;;;;2.28;1.48;;;8.70;99.90;;;;;;5957986;23;20200;-76
2022/12/27 14:35:19;;;;;;;3.03;1.75;;;8.60;99.90;;;;;;6034412;23;20227;-75
2022/12/27 14:38:39;;;;;;;2.50;1.60;;;8.60;99.90;;;;;;6035405;23;20233;-75
2022/12/27 14:41:42;;;;;;;2.03;1.63;;;8.50;99.90;;;;;;5948469;24;20704;-76
2022/12/27 14:44:54;;;;;;;5.68;2.03;;;8.50;99.90;;;;;;5926979;24;20197;-76
2022/12/27 14:47:52;;;;;;;2.30;1.70;;;8.50;99.90;;;;;;6010195;23;20227;-76
2022/12/27 14:50:42;;;;;;;4.30;2.00;;;8.40;99.90;;;;;;6020609;23;20246;-79
2022/12/27 14:53:42;;;;;;;3.47;1.85;;;8.30;99.90;;;;;;6034287;23;20222;-76
2022/12/27 14:56:20;;;;;;;2.30;1.65;;;8.30;99.90;;;;;;6035835;23;20284;-76
2022/12/27 14:58:58;;;;;;;3.45;1.85;;;8.20;99.90;;;;;;6047150;23;20260;-76
2022/12/27 15:01:46;;;;;;;2.08;1.80;;;8.20;99.90;;;;;;6057289;23;20206;-75
2022/12/27 15:04:45;;;;;;;4.38;1.63;;;8.10;99.90;;;;;;6009329;23;20194;-76
2022/12/27 15:07:54;;;;;;;4.00;1.90;;;8.10;99.90;;;;;;6027888;23;20205;-76
2022/12/27 15:10:35;;;;;;;2.60;1.23;;;8.00;99.90;;;;;;5946909;23;20212;-76
2022/12/27 15:13:14;;;;;;;2.58;1.60;;;8.00;99.90;;;;;;6035633;23;20246;-76
2022/12/27 15:15:53;;;;;;;2.47;1.60;;;8.00;99.90;;;;;;6036127;23;20290;-76
2022/12/27 15:18:57;;;;;;;4.65;1.80;;;7.90;99.90;;;;;;6033709;23;20289;-76